Strona główna
METAR-TAF:

METAR-TAF

Lotnisko :

Kastamonu, Turcja

Szerokość geograficzna: 41-19-01N, Długość geograficzna: 33-47-46E, wysokość: 1073 m

METAR: brakujący

czas: 02:02 (23:02 UTC)

Prognoza

Raport powstał 9 godziny i 22 minut temu, godzina 13:40 UTC
Prognoza ważna od 30 godzina 15 UTC do 30 godzina 24 UTC
Wiatr 2 kt z kierunków zmiennych
Widzialność 10 km lub więcej
Rozproszone chmury na wysokości 3300 ft
Rozproszone chmury na wysokości 8000 ft

TAF: LTAL 301340Z 3015/3024 VRB02KT 9999 SCT033 SCT080

Obserwacja i prognoza pogody dla ponad 4000 lotnisk (raport METAR i TAF).

Dostępne stacje oznaczono żółtymi i czerwonymi punktami na mapie.

Najedź kursorem aby zobaczyć nazwę stacji.

Kliknij aby zobaczyć obserwacje i prognozy pogody.

Aby zmienić mapę: kliknij na zielony przycisk z czarnym krzyżykiem, aby powiększyć; na zielony przycisk z myślnikiem, aby pomniejszyć; na zielone strzałki, aby przejść do map sąsiednich.


METAR-TAF: